FA59 weather

Nitv Heliport
Wellington, Florida, United States

Public forecast

Using degrees Fahrenheit for public forecast. Weather courtesy of forecast.io.

METAR (pilot weather report)

Closest report is Palm Beach International Airport, 7.5 nm (13.9 km) ENE. Retrieved 2019/06/20 13:44 UTC (4 minutes ago):

KPBI 201344Z 20008KT 10SM BKN023 BKN200 30/25 A3008 RMK AO2 T03000250

TAF (pilot weather forecast)

Closest forecast is Palm Beach International Airport, 7.5 nm (13.9 km) ENE. Retrieved 2019/06/20 12:23 UTC (1 hour ago):

TAF KPBI 201120Z 2012/2112 VRB05KT P6SM FEW020 SCT250 FM201400 20010KT P6SM SCT025 SCT070 SCT250 FM210000 VRB05KT P6SM SCT025 BKN250